sensor_id;sensor_type;location;lat;lon;timestamp;pressure;altitude;pressure_sealevel;temperature;humidity
61357;BME280;47227;46.752;23.576;2022-08-14T00:02:03;95815.46;;;17.86;61.03
61357;BME280;47227;46.752;23.576;2022-08-14T00:09:44;95810.41;;;17.67;61.51
61357;BME280;47227;46.752;23.576;2022-08-14T00:31:15;95799.53;;;18.16;62.45
61357;BME280;47227;46.752;23.576;2022-08-14T00:38:24;95789.93;;;18.25;61.70
61357;BME280;47227;46.752;23.576;2022-08-14T00:41:46;95787.18;;;18.23;61.51
61357;BME280;47227;46.752;23.576;2022-08-14T00:45:38;95786.16;;;18.15;61.35
61357;BME280;47227;46.752;23.576;2022-08-14T00:56:12;95784.46;;;17.93;62.03
61357;BME280;47227;46.752;23.576;2022-08-14T00:59:12;95781.70;;;17.85;62.02
61357;BME280;47227;46.752;23.576;2022-08-14T01:13:34;95770.20;;;17.46;63.22
61357;BME280;47227;46.752;23.576;2022-08-14T01:16:17;95767.22;;;17.44;63.39
61357;BME280;47227;46.752;23.576;2022-08-14T01:18:56;95770.85;;;17.43;63.42
61357;BME280;47227;46.752;23.576;2022-08-14T01:21:39;95771.14;;;17.42;63.82
61357;BME280;47227;46.752;23.576;2022-08-14T01:24:14;95768.89;;;17.41;63.72
61357;BME280;47227;46.752;23.576;2022-08-14T01:27:02;95766.08;;;17.39;63.82
61357;BME280;47227;46.752;23.576;2022-08-14T01:29:33;95767.00;;;17.38;63.80
61357;BME280;47227;46.752;23.576;2022-08-14T01:32:32;95766.17;;;17.35;63.66
61357;BME280;47227;46.752;23.576;2022-08-14T01:35:09;95764.70;;;17.33;63.58
61357;BME280;47227;46.752;23.576;2022-08-14T01:38:06;95765.80;;;17.29;63.43
61357;BME280;47227;46.752;23.576;2022-08-14T01:40:37;95771.63;;;17.24;63.32
61357;BME280;47227;46.752;23.576;2022-08-14T01:43:10;95773.11;;;17.19;63.35
61357;BME280;47227;46.752;23.576;2022-08-14T01:45:44;95775.34;;;17.15;63.47
61357;BME280;47227;46.752;23.576;2022-08-14T01:48:16;95774.00;;;17.11;63.70
61357;BME280;47227;46.752;23.576;2022-08-14T01:50:47;95773.17;;;17.09;63.86
61357;BME280;47227;46.752;23.576;2022-08-14T01:53:17;95774.65;;;17.06;64.01
61357;BME280;47227;46.752;23.576;2022-08-14T01:55:46;95773.96;;;17.03;63.74
61357;BME280;47227;46.752;23.576;2022-08-14T01:58:19;95768.22;;;17.00;63.85
61357;BME280;47227;46.752;23.576;2022-08-14T02:00:57;95763.48;;;16.96;63.99
61357;BME280;47227;46.752;23.576;2022-08-14T02:03:28;95761.20;;;16.92;63.97
61357;BME280;47227;46.752;23.576;2022-08-14T02:05:58;95759.30;;;16.89;64.24
61357;BME280;47227;46.752;23.576;2022-08-14T02:08:47;95759.59;;;16.88;64.23
61357;BME280;47227;46.752;23.576;2022-08-14T02:11:23;95765.14;;;16.89;64.43
61357;BME280;47227;46.752;23.576;2022-08-14T02:13:59;95761.61;;;16.90;64.93
61357;BME280;47227;46.752;23.576;2022-08-14T02:16:38;95765.43;;;16.89;65.03
61357;BME280;47227;46.752;23.576;2022-08-14T02:19:12;95762.20;;;16.90;64.89
61357;BME280;47227;46.752;23.576;2022-08-14T02:21:45;95763.13;;;16.88;64.91
61357;BME280;47227;46.752;23.576;2022-08-14T02:24:19;95759.48;;;16.88;64.99
61357;BME280;47227;46.752;23.576;2022-08-14T02:27:08;95760.27;;;16.91;65.05
61357;BME280;47227;46.752;23.576;2022-08-14T02:29:58;95763.19;;;16.93;65.10
61357;BME280;47227;46.752;23.576;2022-08-14T02:32:32;95762.36;;;16.97;65.13
61357;BME280;47227;46.752;23.576;2022-08-14T02:35:07;95767.99;;;17.00;65.13
61357;BME280;47227;46.752;23.576;2022-08-14T02:37:40;95767.02;;;17.03;65.29
61357;BME280;47227;46.752;23.576;2022-08-14T02:40:19;95765.73;;;17.07;65.52
61357;BME280;47227;46.752;23.576;2022-08-14T02:43:02;95768.39;;;17.08;65.42
61357;BME280;47227;46.752;23.576;2022-08-14T02:45:35;95765.90;;;17.09;65.24
61357;BME280;47227;46.752;23.576;2022-08-14T02:48:11;95762.79;;;17.08;65.20
61357;BME280;47227;46.752;23.576;2022-08-14T02:51:01;95766.30;;;17.05;64.80
61357;BME280;47227;46.752;23.576;2022-08-14T02:53:32;95767.87;;;17.04;64.61
61357;BME280;47227;46.752;23.576;2022-08-14T02:56:05;95763.39;;;17.00;64.68
61357;BME280;47227;46.752;23.576;2022-08-14T02:58:55;95766.82;;;16.98;64.49
61357;BME280;47227;46.752;23.576;2022-08-14T03:01:27;95763.40;;;16.95;64.82
61357;BME280;47227;46.752;23.576;2022-08-14T03:04:11;95766.14;;;16.91;65.05
61357;BME280;47227;46.752;23.576;2022-08-14T03:06:39;95767.86;;;16.88;64.98
61357;BME280;47227;46.752;23.576;2022-08-14T03:09:30;95772.01;;;16.84;64.91
61357;BME280;47227;46.752;23.576;2022-08-14T03:12:19;95775.63;;;16.81;64.82
61357;BME280;47227;46.752;23.576;2022-08-14T03:15:00;95779.64;;;16.80;64.89
61357;BME280;47227;46.752;23.576;2022-08-14T03:17:42;95777.65;;;16.78;64.94
61357;BME280;47227;46.752;23.576;2022-08-14T03:20:26;95780.27;;;16.76;65.14
61357;BME280;47227;46.752;23.576;2022-08-14T03:22:59;95783.20;;;16.76;65.20
61357;BME280;47227;46.752;23.576;2022-08-14T03:25:32;95784.81;;;16.76;65.23
61357;BME280;47227;46.752;23.576;2022-08-14T03:28:07;95789.88;;;16.79;65.31
61357;BME280;47227;46.752;23.576;2022-08-14T03:30:56;95790.59;;;16.82;65.26
61357;BME280;47227;46.752;23.576;2022-08-14T03:33:27;95792.02;;;16.85;65.59
61357;BME280;47227;46.752;23.576;2022-08-14T03:36:09;95791.86;;;16.89;65.59
61357;BME280;47227;46.752;23.576;2022-08-14T03:39:02;95794.42;;;16.94;65.55
61357;BME280;47227;46.752;23.576;2022-08-14T03:41:49;95791.70;;;16.95;65.56
61357;BME280;47227;46.752;23.576;2022-08-14T03:44:20;95799.26;;;16.96;65.57
61357;BME280;47227;46.752;23.576;2022-08-14T03:47:09;95799.79;;;16.96;65.61
61357;BME280;47227;46.752;23.576;2022-08-14T05:13:22;95795.97;;;17.86;65.99
61357;BME280;47227;46.752;23.576;2022-08-14T05:17:43;95801.88;;;17.90;66.27
61357;BME280;47227;46.752;23.576;2022-08-14T05:21:43;95798.62;;;18.00;65.84
61357;BME280;47227;46.752;23.576;2022-08-14T05:28:41;95805.39;;;18.23;65.10
61357;BME280;47227;46.752;23.576;2022-08-14T05:39:23;95797.51;;;18.56;64.48
61357;BME280;47227;46.752;23.576;2022-08-14T05:57:56;95808.73;;;18.92;63.86
61357;BME280;47227;46.752;23.576;2022-08-14T10:55:37;95632.16;;;29.57;37.25
61357;BME280;47227;46.752;23.576;2022-08-14T11:21:33;95608.55;;;31.58;33.29
61357;BME280;47227;46.752;23.576;2022-08-14T11:24:13;95607.09;;;31.57;32.55
61357;BME280;47227;46.752;23.576;2022-08-14T11:27:04;95603.77;;;31.63;32.63
61357;BME280;47227;46.752;23.576;2022-08-14T11:29:34;95605.38;;;31.94;32.34
61357;BME280;47227;46.752;23.576;2022-08-14T11:32:05;95604.63;;;32.29;31.71
61357;BME280;47227;46.752;23.576;2022-08-14T11:34:36;95604.98;;;32.37;29.97
61357;BME280;47227;46.752;23.576;2022-08-14T11:37:10;95606.80;;;32.28;28.73
61357;BME280;47227;46.752;23.576;2022-08-14T11:40:00;95599.50;;;32.07;29.31
61357;BME280;47227;46.752;23.576;2022-08-14T11:42:29;95595.56;;;32.35;30.07
61357;BME280;47227;46.752;23.576;2022-08-14T11:45:18;95596.67;;;32.46;30.21
61357;BME280;47227;46.752;23.576;2022-08-14T11:54:44;95592.98;;;32.50;30.05
61357;BME280;47227;46.752;23.576;2022-08-14T12:27:03;95577.28;;;35.15;25.30
61357;BME280;47227;46.752;23.576;2022-08-14T13:06:14;95536.67;;;34.39;26.58
61357;BME280;47227;46.752;23.576;2022-08-14T13:25:28;95514.98;;;33.33;28.13
61357;BME280;47227;46.752;23.576;2022-08-14T13:29:07;95507.89;;;33.57;27.94
61357;BME280;47227;46.752;23.576;2022-08-14T13:41:37;95486.45;;;35.57;24.68
61357;BME280;47227;46.752;23.576;2022-08-14T13:44:30;95486.80;;;35.04;24.94
61357;BME280;47227;46.752;23.576;2022-08-14T13:47:51;95487.42;;;34.71;25.07
61357;BME280;47227;46.752;23.576;2022-08-14T13:54:28;95497.82;;;35.04;24.21
61357;BME280;47227;46.752;23.576;2022-08-14T13:57:51;95503.36;;;35.23;24.20
61357;BME280;47227;46.752;23.576;2022-08-14T14:04:15;95517.35;;;34.52;26.03
61357;BME280;47227;46.752;23.576;2022-08-14T14:07:45;95525.05;;;33.84;27.07
61357;BME280;47227;46.752;23.576;2022-08-14T14:11:52;95519.77;;;33.83;27.38
61357;BME280;47227;46.752;23.576;2022-08-14T14:18:52;95525.23;;;34.61;26.94
61357;BME280;47227;46.752;23.576;2022-08-14T14:22:41;95529.40;;;34.95;26.39
61357;BME280;47227;46.752;23.576;2022-08-14T14:26:32;95536.21;;;35.92;25.90
61357;BME280;47227;46.752;23.576;2022-08-14T14:30:17;95533.78;;;36.21;25.73
61357;BME280;47227;46.752;23.576;2022-08-14T14:53:27;95528.35;;;33.12;29.29
61357;BME280;47227;46.752;23.576;2022-08-14T15:09:17;95572.15;;;30.93;34.19
61357;BME280;47227;46.752;23.576;2022-08-14T16:22:03;95628.70;;;17.74;76.36
61357;BME280;47227;46.752;23.576;2022-08-14T16:30:01;95638.88;;;17.88;78.20
61357;BME280;47227;46.752;23.576;2022-08-14T16:33:39;95652.01;;;17.95;77.48
61357;BME280;47227;46.752;23.576;2022-08-14T16:37:09;95658.84;;;17.96;76.96
61357;BME280;47227;46.752;23.576;2022-08-14T16:40:33;95666.50;;;18.01;76.74
61357;BME280;47227;46.752;23.576;2022-08-14T16:47:30;95670.52;;;17.97;78.59
61357;BME280;47227;46.752;23.576;2022-08-14T16:52:25;95665.20;;;17.94;79.17
61357;BME280;47227;46.752;23.576;2022-08-14T16:56:26;95658.43;;;17.90;78.78
61357;BME280;47227;46.752;23.576;2022-08-14T16:59:22;95660.09;;;17.95;81.73
61357;BME280;47227;46.752;23.576;2022-08-14T17:02:44;95668.16;;;18.04;81.75
61357;BME280;47227;46.752;23.576;2022-08-14T17:13:48;95679.68;;;18.20;78.67
61357;BME280;47227;46.752;23.576;2022-08-14T17:21:16;95683.46;;;18.09;77.56
61357;BME280;47227;46.752;23.576;2022-08-14T17:25:05;95677.42;;;17.99;77.81
61357;BME280;47227;46.752;23.576;2022-08-14T17:32:12;95663.62;;;17.92;77.05
61357;BME280;47227;46.752;23.576;2022-08-14T17:35:44;95660.34;;;17.94;77.71
61357;BME280;47227;46.752;23.576;2022-08-14T17:38:20;95652.11;;;17.88;77.37
61357;BME280;47227;46.752;23.576;2022-08-14T17:41:30;95649.05;;;17.85;77.13
61357;BME280;47227;46.752;23.576;2022-08-14T17:44:23;95643.86;;;17.81;76.98
61357;BME280;47227;46.752;23.576;2022-08-14T17:52:07;95627.80;;;17.72;76.46
61357;BME280;47227;46.752;23.576;2022-08-14T17:55:53;95626.78;;;17.65;76.52
61357;BME280;47227;46.752;23.576;2022-08-14T18:05:59;95636.80;;;17.57;79.18
61357;BME280;47227;46.752;23.576;2022-08-14T18:09:57;95632.36;;;17.55;77.64
61357;BME280;47227;46.752;23.576;2022-08-14T18:17:17;95617.45;;;17.52;77.21
61357;BME280;47227;46.752;23.576;2022-08-14T18:20:39;95608.05;;;17.52;77.51
61357;BME280;47227;46.752;23.576;2022-08-14T18:24:18;95608.34;;;17.49;77.58
61357;BME280;47227;46.752;23.576;2022-08-14T18:27:49;95609.54;;;17.44;77.01
61357;BME280;47227;46.752;23.576;2022-08-14T18:35:18;95625.67;;;17.43;77.74
61357;BME280;47227;46.752;23.576;2022-08-14T18:38:24;95622.46;;;17.34;77.65
61357;BME280;47227;46.752;23.576;2022-08-14T18:41:34;95627.81;;;17.31;77.85
61357;BME280;47227;46.752;23.576;2022-08-14T18:45:03;95635.64;;;17.31;78.35
61357;BME280;47227;46.752;23.576;2022-08-14T18:48:30;95643.08;;;17.33;78.71
61357;BME280;47227;46.752;23.576;2022-08-14T18:52:16;95649.02;;;17.38;79.04
61357;BME280;47227;46.752;23.576;2022-08-14T18:55:39;95650.85;;;17.43;78.59
61357;BME280;47227;46.752;23.576;2022-08-14T18:58:23;95649.63;;;17.48;79.23
61357;BME280;47227;46.752;23.576;2022-08-14T19:01:24;95653.10;;;17.51;82.73
61357;BME280;47227;46.752;23.576;2022-08-14T19:04:51;95654.11;;;17.47;79.62
61357;BME280;47227;46.752;23.576;2022-08-14T19:08:21;95660.35;;;17.35;79.76
61357;BME280;47227;46.752;23.576;2022-08-14T19:11:41;95657.24;;;17.28;79.24
61357;BME280;47227;46.752;23.576;2022-08-14T19:15:19;95653.69;;;17.24;79.31
61357;BME280;47227;46.752;23.576;2022-08-14T19:18:29;95653.88;;;17.25;79.43
61357;BME280;47227;46.752;23.576;2022-08-14T19:29:21;95640.92;;;17.13;78.84
61357;BME280;47227;46.752;23.576;2022-08-14T19:31:53;95637.12;;;17.07;78.64
61357;BME280;47227;46.752;23.576;2022-08-14T19:54:00;95619.63;;;16.45;79.10
61357;BME280;47227;46.752;23.576;2022-08-14T20:34:16;95608.16;;;16.59;80.76
61357;BME280;47227;46.752;23.576;2022-08-14T20:41:26;95608.29;;;16.57;81.36
61357;BME280;47227;46.752;23.576;2022-08-14T21:01:32;95599.11;;;16.46;81.28
61357;BME280;47227;46.752;23.576;2022-08-14T21:04:51;95602.70;;;16.46;81.77
61357;BME280;47227;46.752;23.576;2022-08-14T21:07:30;95606.30;;;16.46;81.55
61357;BME280;47227;46.752;23.576;2022-08-14T21:14:07;95604.77;;;16.46;81.71
61357;BME280;47227;46.752;23.576;2022-08-14T21:17:39;95601.83;;;16.45;81.63
61357;BME280;47227;46.752;23.576;2022-08-14T21:34:54;95597.14;;;16.12;80.76
61357;BME280;47227;46.752;23.576;2022-08-14T21:38:29;95592.08;;;16.06;80.79
61357;BME280;47227;46.752;23.576;2022-08-14T23:29:30;95631.19;;;16.83;82.90
61357;BME280;47227;46.752;23.576;2022-08-14T23:37:25;95628.15;;;16.92;82.43
61357;BME280;47227;46.752;23.576;2022-08-14T23:48:16;95633.41;;;16.90;81.72
61357;BME280;47227;46.752;23.576;2022-08-14T23:56:16;95628.46;;;16.72;81.92
